createdAt,value
2023-01-10T00:02:12.756Z,41.70
2023-01-10T00:04:41.532Z,40.93
2023-01-10T00:07:10.287Z,37.57
2023-01-10T00:09:39.197Z,36.20
2023-01-10T00:12:26.029Z,36.13
2023-01-10T00:14:54.691Z,40.47
2023-01-10T00:17:23.485Z,41.40
2023-01-10T00:19:52.167Z,37.67
2023-01-10T00:22:22.397Z,39.30
2023-01-10T00:24:51.292Z,37.47
2023-01-10T00:27:23.991Z,39.87
2023-01-10T00:29:52.817Z,36.00
2023-01-10T00:32:22.518Z,36.80
2023-01-10T00:34:51.184Z,35.97
2023-01-10T00:37:21.588Z,33.60
2023-01-10T00:39:50.359Z,35.20
2023-01-10T00:42:36.969Z,36.60
2023-01-10T00:45:05.986Z,35.17
2023-01-10T00:47:34.790Z,36.27
2023-01-10T00:50:05.101Z,30.97
2023-01-10T00:52:34.097Z,31.60
2023-01-10T00:55:05.740Z,30.87
2023-01-10T00:57:34.472Z,35.00
2023-01-10T01:00:03.281Z,33.63
2023-01-10T01:02:32.058Z,32.10
2023-01-10T01:05:02.947Z,33.13
2023-01-10T01:07:31.691Z,31.17
2023-01-10T01:10:18.466Z,33.10
2023-01-10T01:12:47.466Z,34.73
2023-01-10T01:15:16.212Z,32.53
2023-01-10T01:17:44.935Z,31.67
2023-01-10T01:20:13.811Z,27.33
2023-01-10T01:22:42.646Z,30.77
2023-01-10T01:25:11.802Z,29.53
2023-01-10T01:27:40.636Z,28.27
2023-01-10T01:30:11.797Z,28.40
2023-01-10T01:32:40.728Z,29.93
2023-01-10T01:35:12.804Z,30.53
2023-01-10T01:37:42.144Z,31.47
2023-01-10T01:40:19.936Z,34.97
2023-01-10T01:42:49.370Z,29.23
2023-01-10T01:45:26.766Z,31.03
2023-01-10T01:48:07.457Z,31.83
2023-01-10T01:50:49.609Z,29.70
2023-01-10T01:53:26.928Z,30.03
2023-01-10T01:55:58.729Z,31.10
2023-01-10T01:58:30.366Z,32.60
2023-01-10T02:00:59.165Z,32.23
2023-01-10T02:03:28.591Z,33.00
2023-01-10T02:05:57.471Z,32.97
2023-01-10T02:08:26.352Z,27.10
2023-01-10T02:11:11.712Z,29.97
2023-01-10T02:13:43.602Z,28.77
2023-01-10T02:16:13.915Z,28.63
2023-01-10T02:18:44.526Z,32.63
2023-01-10T02:21:19.193Z,31.70
2023-01-10T02:24:25.628Z,31.27
2023-01-10T02:27:15.459Z,30.23
2023-01-10T02:29:52.945Z,30.20
2023-01-10T02:32:41.672Z,30.07
2023-01-10T02:35:16.284Z,30.27
2023-01-10T02:38:11.490Z,31.37
2023-01-10T02:41:15.665Z,33.00
2023-01-10T02:43:47.337Z,27.73
2023-01-10T02:46:20.615Z,30.67
2023-01-10T02:48:49.334Z,30.90
2023-01-10T02:51:28.654Z,33.10
2023-01-10T02:54:07.881Z,31.27
2023-01-10T02:56:57.717Z,28.67
2023-01-10T02:59:38.683Z,31.77
2023-01-10T03:02:14.894Z,29.23
2023-01-10T03:04:58.818Z,28.60
2023-01-10T03:07:30.480Z,27.60
2023-01-10T03:10:11.029Z,25.90
2023-01-10T03:12:56.385Z,31.07
2023-01-10T03:15:31.213Z,25.20
2023-01-10T03:18:02.965Z,25.03
2023-01-10T03:20:34.637Z,24.37
2023-01-10T03:23:06.756Z,27.57
2023-01-10T03:25:44.619Z,26.50
2023-01-10T03:28:19.592Z,25.67
2023-01-10T03:30:51.270Z,26.43
2023-01-10T03:33:25.975Z,25.20
2023-01-10T03:36:22.165Z,26.70
2023-01-10T03:38:56.707Z,22.37
2023-01-10T03:48:16.368Z,24.27
2023-01-10T03:50:47.031Z,25.63
2023-01-10T03:53:16.846Z,26.83
2023-01-10T03:55:46.593Z,24.77
2023-01-10T03:58:17.162Z,31.00
2023-01-10T04:00:46.070Z,29.33
2023-01-10T04:03:15.098Z,25.67
2023-01-10T04:05:43.951Z,28.93
2023-01-10T04:08:14.304Z,27.47
2023-01-10T04:10:43.113Z,28.27
2023-01-10T04:13:11.895Z,28.67
2023-01-10T04:15:42.112Z,25.43
2023-01-10T04:18:10.925Z,25.47
2023-01-10T04:20:39.624Z,22.30
2023-01-10T04:23:28.665Z,22.37
2023-01-10T04:25:59.626Z,21.80
2023-01-10T04:28:30.093Z,25.33
2023-01-10T04:31:01.933Z,25.77
2023-01-10T04:33:30.769Z,24.47
2023-01-10T04:35:59.526Z,24.83
2023-01-10T04:38:28.346Z,22.03
2023-01-10T04:40:58.119Z,24.80
2023-01-10T04:43:27.048Z,24.30
2023-01-10T04:45:55.803Z,22.57
2023-01-10T04:48:24.667Z,25.10
2023-01-10T04:50:54.950Z,25.23
2023-01-10T04:53:24.284Z,24.63
2023-01-10T04:55:54.364Z,24.03
2023-01-10T04:59:37.296Z,21.50
2023-01-10T05:07:00.848Z,24.27
2023-01-10T05:09:29.504Z,25.33
2023-01-10T05:11:58.174Z,27.73
2023-01-10T05:14:28.612Z,26.37
2023-01-10T05:16:57.377Z,24.77
2023-01-10T05:19:28.449Z,26.60
2023-01-10T05:21:58.075Z,29.07
2023-01-10T05:24:26.748Z,26.20
2023-01-10T05:26:58.514Z,25.40
2023-01-10T05:29:28.049Z,24.60
2023-01-10T05:38:01.338Z,28.93
2023-01-10T05:43:22.780Z,30.87
2023-01-10T05:45:51.964Z,30.10
2023-01-10T05:48:21.192Z,32.70
2023-01-10T05:50:52.012Z,29.60
2023-01-10T05:53:21.916Z,30.53
2023-01-10T05:55:59.203Z,24.90
2023-01-10T05:58:29.406Z,29.67
2023-01-10T06:00:59.273Z,27.53
2023-01-10T06:03:28.147Z,27.50
2023-01-10T06:05:57.923Z,29.20
2023-01-10T06:08:26.741Z,28.80
2023-01-10T06:10:55.885Z,31.80
2023-01-10T06:13:25.012Z,28.50
2023-01-10T06:15:53.788Z,27.33
2023-01-10T06:18:22.725Z,26.10
2023-01-10T06:20:51.565Z,25.13
2023-01-10T06:23:20.165Z,23.17
2023-01-10T06:25:48.956Z,23.17
2023-01-10T06:28:17.742Z,27.47
2023-01-10T06:30:46.679Z,27.90
2023-01-10T06:33:15.446Z,25.67
2023-01-10T06:35:45.720Z,28.47
2023-01-10T06:38:14.526Z,24.83
2023-01-10T06:40:43.291Z,26.30
2023-01-10T06:43:11.902Z,24.20
2023-01-10T06:45:40.683Z,27.27
2023-01-10T06:48:09.388Z,28.70
2023-01-10T06:50:38.076Z,29.27
2023-01-10T06:53:06.942Z,29.07
2023-01-10T06:55:36.478Z,25.13
2023-01-10T06:58:06.086Z,26.87
2023-01-10T07:00:34.809Z,25.43
2023-01-10T07:03:04.703Z,29.93
2023-01-10T07:05:37.450Z,31.67
2023-01-10T07:08:07.339Z,28.20
2023-01-10T07:10:36.801Z,28.97
2023-01-10T07:13:06.971Z,31.70
2023-01-10T07:15:42.003Z,28.77
2023-01-10T07:18:12.956Z,28.77
2023-01-10T07:20:43.419Z,30.87
2023-01-10T07:23:22.226Z,29.17
2023-01-10T07:26:00.134Z,32.40
2023-01-10T07:31:48.717Z,38.20
2023-01-10T07:34:17.838Z,31.57
2023-01-10T07:36:46.736Z,33.53
2023-01-10T07:39:15.452Z,33.87
2023-01-10T07:41:44.356Z,31.87
2023-01-10T07:44:12.906Z,35.93
2023-01-10T07:46:41.587Z,30.37
2023-01-10T07:49:10.411Z,35.53
2023-01-10T07:51:39.178Z,29.17
2023-01-10T07:54:09.917Z,30.20
2023-01-10T07:56:40.325Z,33.43
2023-01-10T07:59:11.171Z,34.93
2023-01-10T08:01:39.846Z,42.53
2023-01-10T08:04:10.202Z,37.90
2023-01-10T08:06:39.245Z,38.97
2023-01-10T08:09:09.658Z,40.53
2023-01-10T08:11:40.719Z,43.03
2023-01-10T08:14:08.964Z,46.83
2023-01-10T08:16:37.792Z,43.73
2023-01-10T08:19:06.567Z,45.70
2023-01-10T08:21:35.317Z,150.13
2023-01-10T08:24:04.032Z,93.17
2023-01-10T08:26:33.022Z,40.87
2023-01-10T08:29:03.567Z,47.47
2023-01-10T08:31:32.833Z,59.90
2023-01-10T08:34:05.959Z,44.73
2023-01-10T08:36:40.513Z,35.40
2023-01-10T08:39:18.113Z,37.00
2023-01-10T08:41:47.591Z,34.03
2023-01-10T08:44:17.105Z,37.47
2023-01-10T08:46:46.562Z,40.70
2023-01-10T08:49:15.715Z,50.47
2023-01-10T08:51:45.173Z,53.80
2023-01-10T08:54:14.217Z,54.17
2023-01-10T08:56:44.684Z,59.87
2023-01-10T08:59:19.389Z,57.30
2023-01-10T09:01:55.783Z,51.90
2023-01-10T09:04:22.366Z,48.63
2023-01-10T09:06:51.164Z,53.60
2023-01-10T09:09:20.122Z,55.17
2023-01-10T09:11:50.475Z,51.53
2023-01-10T09:14:19.602Z,52.03
2023-01-10T09:16:50.219Z,50.87
2023-01-10T09:19:19.557Z,46.70
2023-01-10T09:21:52.857Z,49.27
2023-01-10T09:24:34.855Z,51.93
2023-01-10T09:27:19.047Z,51.03
2023-01-10T09:29:48.834Z,49.30
2023-01-10T09:35:18.051Z,48.67
2023-01-10T09:38:07.898Z,48.93
2023-01-10T09:44:10.154Z,48.60
2023-01-10T09:50:20.042Z,79.83
2023-01-10T09:52:51.658Z,49.13
2023-01-10T09:55:32.335Z,52.87
2023-01-10T09:58:04.900Z,46.40
2023-01-10T10:00:40.199Z,49.47
2023-01-10T10:03:29.831Z,82.60
2023-01-10T10:06:11.634Z,47.07
2023-01-10T10:08:32.318Z,44.17
2023-01-10T10:11:20.898Z,51.80
2023-01-10T10:13:56.538Z,148.67
2023-01-10T10:16:52.634Z,66.77
2023-01-10T10:19:37.221Z,67.13
2023-01-10T10:22:26.942Z,71.40
2023-01-10T10:25:04.292Z,72.10
2023-01-10T10:27:41.956Z,76.57
2023-01-10T10:30:25.775Z,76.20
2023-01-10T10:33:23.383Z,88.40
2023-01-10T10:36:04.910Z,81.07
2023-01-10T10:38:39.414Z,91.07
2023-01-10T10:41:11.175Z,99.37
2023-01-10T10:43:41.640Z,93.87
2023-01-10T10:46:13.351Z,102.60
2023-01-10T10:49:11.999Z,68.60
2023-01-10T10:55:18.073Z,68.77
2023-01-10T10:57:59.841Z,66.10
2023-01-10T11:00:23.879Z,68.77
2023-01-10T11:02:58.368Z,69.43
2023-01-10T11:05:30.141Z,71.17
2023-01-10T11:08:04.590Z,68.27
2023-01-10T11:10:38.647Z,71.57
2023-01-10T11:13:32.629Z,65.93
2023-01-10T11:16:03.208Z,61.07
2023-01-10T11:18:32.919Z,63.00
2023-01-10T11:21:06.967Z,64.30
2023-01-10T11:23:47.142Z,56.07
2023-01-10T11:26:40.730Z,58.33
2023-01-10T11:29:24.855Z,52.43
2023-01-10T11:31:58.573Z,59.17
2023-01-10T11:34:29.537Z,61.03
2023-01-10T11:37:01.594Z,68.63
2023-01-10T11:39:32.473Z,64.33
2023-01-10T11:42:04.116Z,56.43
2023-01-10T11:44:33.338Z,57.87
2023-01-10T11:47:05.121Z,72.03
2023-01-10T11:49:39.959Z,59.33
2023-01-10T11:52:18.245Z,64.27
2023-01-10T11:54:47.037Z,65.20
2023-01-10T11:57:24.985Z,62.47
2023-01-10T12:00:05.668Z,62.00
2023-01-10T12:02:40.158Z,64.27
2023-01-10T12:08:13.243Z,60.87
2023-01-10T12:10:51.312Z,69.73
2023-01-10T12:13:20.365Z,62.10
2023-01-10T12:15:50.712Z,65.07
2023-01-10T12:21:17.364Z,53.17
2023-01-10T12:23:58.607Z,58.40
2023-01-10T12:33:11.541Z,46.33
2023-01-10T12:36:12.704Z,43.63
2023-01-10T12:39:10.645Z,79.60
2023-01-10T12:45:18.603Z,54.57
2023-01-10T12:48:05.657Z,45.47
2023-01-10T12:50:41.534Z,42.87
2023-01-10T12:53:44.292Z,44.67
2023-01-10T12:56:17.592Z,45.13
2023-01-10T12:58:49.444Z,42.10
2023-01-10T13:02:19.004Z,42.23
2023-01-10T13:05:05.533Z,44.63
2023-01-10T13:10:03.661Z,44.53
2023-01-10T13:12:41.106Z,39.83
2023-01-10T13:15:21.986Z,39.73
2023-01-10T13:17:56.528Z,39.40
2023-01-10T13:23:26.539Z,36.87
2023-01-10T13:26:01.689Z,34.83
2023-01-10T13:28:33.964Z,38.57
2023-01-10T13:31:09.614Z,33.87
2023-01-10T13:33:53.243Z,38.37
2023-01-10T13:36:33.284Z,41.70
2023-01-10T13:39:09.737Z,42.27
2023-01-10T13:45:43.741Z,45.93
2023-01-10T13:48:44.647Z,40.67
2023-01-10T13:51:24.877Z,41.03
2023-01-10T13:54:04.460Z,39.43
2023-01-10T13:56:36.502Z,34.90
2023-01-10T13:59:26.016Z,34.43
2023-01-10T14:02:15.579Z,31.70
2023-01-10T14:04:56.861Z,32.93
2023-01-10T14:07:31.640Z,30.43
2023-01-10T14:10:04.917Z,27.63
2023-01-10T14:12:48.961Z,18.00
2023-01-10T14:15:30.204Z,23.70
2023-01-10T14:18:05.002Z,19.13
2023-01-10T14:20:36.692Z,19.03
2023-01-10T14:23:13.164Z,21.53
2023-01-10T14:38:38.245Z,10.93
2023-01-10T14:41:25.608Z,9.50
2023-01-10T14:44:13.975Z,8.07
2023-01-10T14:47:06.606Z,11.23
2023-01-10T14:49:49.075Z,7.13
2023-01-10T14:55:22.846Z,5.60
2023-01-10T14:58:03.645Z,9.70
2023-01-10T15:03:37.770Z,13.90
2023-01-10T15:06:21.700Z,7.00
2023-01-10T15:09:27.808Z,7.23
2023-01-10T15:12:08.165Z,8.40
2023-01-10T15:14:40.475Z,9.23
2023-01-10T15:17:21.432Z,11.13
2023-01-10T15:20:00.072Z,14.30
2023-01-10T15:22:35.137Z,11.53
2023-01-10T15:28:40.901Z,10.73
2023-01-10T15:31:40.618Z,8.57
2023-01-10T15:34:24.434Z,11.57
2023-01-10T15:37:08.462Z,7.60
2023-01-10T15:39:42.726Z,9.13
2023-01-10T15:48:12.218Z,9.23
2023-01-10T15:50:41.348Z,8.83
2023-01-10T15:53:15.944Z,16.10
2023-01-10T15:55:53.374Z,7.40
2023-01-10T15:58:52.722Z,6.17
2023-01-10T16:01:22.272Z,4.70
2023-01-10T16:03:58.067Z,3.70
2023-01-10T16:06:39.383Z,11.83
2023-01-10T16:15:02.990Z,3.70
2023-01-10T16:23:35.831Z,8.70
2023-01-10T16:26:33.522Z,5.73
2023-01-10T16:28:42.855Z,4.57
2023-01-10T16:37:27.065Z,5.13
2023-01-10T16:43:52.505Z,9.30
2023-01-10T16:57:47.779Z,11.43
2023-01-10T17:06:22.977Z,13.47
2023-01-10T17:09:10.354Z,12.03
2023-01-10T17:17:15.619Z,11.13
2023-01-10T17:19:46.998Z,12.00
2023-01-10T17:28:15.278Z,13.40
2023-01-10T17:30:54.877Z,13.90
2023-01-10T17:33:27.450Z,10.10
2023-01-10T17:36:22.598Z,7.67
2023-01-10T18:20:05.256Z,5.27
2023-01-10T19:35:31.985Z,4.53
2023-01-10T19:37:13.483Z,5.03
2023-01-10T19:39:48.522Z,5.07
2023-01-10T19:42:26.295Z,3.47
2023-01-10T19:45:05.745Z,3.37
2023-01-10T20:32:32.722Z,9.57
2023-01-10T20:35:01.635Z,12.60
2023-01-10T20:37:32.077Z,11.27
2023-01-10T20:40:27.771Z,12.57
2023-01-10T20:53:03.466Z,7.83
2023-01-10T20:55:33.780Z,6.80
2023-01-10T20:58:02.448Z,6.07
2023-01-10T21:00:31.634Z,7.37
2023-01-10T21:03:00.463Z,3.23
2023-01-10T21:05:31.105Z,7.43
2023-01-10T21:07:59.803Z,8.37
2023-01-10T21:10:28.453Z,5.73
2023-01-10T21:12:57.333Z,4.47
2023-01-10T21:15:27.563Z,4.53
2023-01-10T21:17:56.238Z,5.37
2023-01-10T21:20:26.618Z,9.97
2023-01-10T21:22:58.527Z,6.27
2023-01-10T21:41:17.516Z,4.83
2023-01-10T21:43:46.485Z,37.00
2023-01-10T21:46:15.360Z,5.77
2023-01-10T21:48:44.058Z,4.00
2023-01-10T21:51:12.760Z,4.57
2023-01-10T21:53:43.203Z,6.47
2023-01-10T21:56:12.106Z,9.17
2023-01-10T21:58:40.793Z,4.67
2023-01-10T22:01:09.841Z,4.00
2023-01-10T22:03:38.673Z,3.13
2023-01-10T22:06:07.617Z,3.87
2023-01-10T22:08:36.456Z,3.23
2023-01-10T22:11:05.092Z,3.10
2023-01-10T22:13:33.812Z,3.10
2023-01-10T22:16:05.365Z,3.30
2023-01-10T22:18:34.151Z,3.63
2023-01-10T22:21:03.597Z,4.67
2023-01-10T22:23:32.483Z,2.73
2023-01-10T22:26:03.521Z,2.63
2023-01-10T22:28:32.914Z,1.30
2023-01-10T22:31:02.472Z,4.60
2023-01-10T22:33:33.273Z,3.60
2023-01-10T22:36:10.542Z,3.10
2023-01-10T22:38:39.196Z,3.80
2023-01-10T22:41:14.225Z,3.40
2023-01-10T22:43:43.378Z,4.67
2023-01-10T22:46:14.567Z,3.77
2023-01-10T22:48:44.812Z,4.57
2023-01-10T22:51:15.109Z,5.83
2023-01-10T22:53:43.956Z,6.03
2023-01-10T22:56:13.193Z,5.17
2023-01-10T22:58:43.578Z,8.10
2023-01-10T23:01:12.324Z,4.37
2023-01-10T23:03:41.053Z,5.70
2023-01-10T23:06:10.423Z,5.00
2023-01-10T23:08:41.164Z,5.63
2023-01-10T23:11:11.732Z,6.77
2023-01-10T23:13:40.476Z,5.30
2023-01-10T23:16:12.407Z,5.00
2023-01-10T23:18:41.613Z,4.53
2023-01-10T23:21:10.755Z,4.10
2023-01-10T23:23:39.425Z,5.93
2023-01-10T23:26:10.065Z,6.80
2023-01-10T23:28:48.537Z,9.87
2023-01-10T23:31:20.042Z,9.13
2023-01-10T23:33:50.027Z,6.90
2023-01-10T23:36:19.819Z,5.87
2023-01-10T23:38:48.498Z,7.70
2023-01-10T23:41:19.026Z,7.60
2023-01-10T23:43:49.466Z,5.53
2023-01-10T23:46:18.677Z,6.10
2023-01-10T23:48:48.524Z,5.17
2023-01-10T23:51:18.461Z,6.07
2023-01-10T23:53:47.133Z,7.10
2023-01-10T23:56:16.632Z,4.93
2023-01-10T23:58:45.378Z,4.80
